sensor_id;sensor_type;location;lat;lon;timestamp;P1;durP1;ratioP1;P2;durP2;ratioP2
52268;SDS011;38224;50.950;4.100;2022-08-04T00:00:39;13.23;;;4.03;;
52268;SDS011;38224;50.950;4.100;2022-08-04T00:10:25;10.43;;;3.67;;
52268;SDS011;38224;50.950;4.100;2022-08-04T00:12:52;15.77;;;4.05;;
52268;SDS011;38224;50.950;4.100;2022-08-04T00:15:18;12.27;;;5.25;;
52268;SDS011;38224;50.950;4.100;2022-08-04T00:17:45;15.70;;;4.22;;
52268;SDS011;38224;50.950;4.100;2022-08-04T00:20:15;12.60;;;3.40;;
52268;SDS011;38224;50.950;4.100;2022-08-04T00:22:41;12.43;;;4.25;;
52268;SDS011;38224;50.950;4.100;2022-08-04T00:25:09;11.88;;;4.28;;
52268;SDS011;38224;50.950;4.100;2022-08-04T00:27:34;12.47;;;4.20;;
52268;SDS011;38224;50.950;4.100;2022-08-04T00:29:59;10.75;;;4.60;;
52268;SDS011;38224;50.950;4.100;2022-08-04T00:32:25;9.75;;;4.05;;
52268;SDS011;38224;50.950;4.100;2022-08-04T00:34:51;11.32;;;3.85;;
52268;SDS011;38224;50.950;4.100;2022-08-04T00:37:18;11.98;;;3.80;;
52268;SDS011;38224;50.950;4.100;2022-08-04T00:39:44;11.93;;;4.03;;
52268;SDS011;38224;50.950;4.100;2022-08-04T00:57:27;14.77;;;4.83;;
52268;SDS011;38224;50.950;4.100;2022-08-04T01:10:04;16.33;;;5.35;;
52268;SDS011;38224;50.950;4.100;2022-08-04T01:15:14;14.85;;;5.15;;
52268;SDS011;38224;50.950;4.100;2022-08-04T01:17:42;12.10;;;5.10;;
52268;SDS011;38224;50.950;4.100;2022-08-04T01:20:14;13.68;;;5.00;;
52268;SDS011;38224;50.950;4.100;2022-08-04T01:30:20;18.35;;;5.55;;
52268;SDS011;38224;50.950;4.100;2022-08-04T01:32:47;11.30;;;4.47;;
52268;SDS011;38224;50.950;4.100;2022-08-04T01:35:21;12.10;;;4.72;;
52268;SDS011;38224;50.950;4.100;2022-08-04T01:37:58;14.35;;;5.32;;
52268;SDS011;38224;50.950;4.100;2022-08-04T01:40:25;14.20;;;5.38;;
52268;SDS011;38224;50.950;4.100;2022-08-04T01:42:51;12.65;;;4.80;;
52268;SDS011;38224;50.950;4.100;2022-08-04T01:45:17;16.30;;;5.30;;
52268;SDS011;38224;50.950;4.100;2022-08-04T01:47:48;12.38;;;4.50;;
52268;SDS011;38224;50.950;4.100;2022-08-04T01:50:13;17.48;;;5.05;;
52268;SDS011;38224;50.950;4.100;2022-08-04T01:52:41;10.30;;;5.47;;
52268;SDS011;38224;50.950;4.100;2022-08-04T01:55:08;13.95;;;5.50;;
52268;SDS011;38224;50.950;4.100;2022-08-04T01:57:34;12.35;;;5.47;;
52268;SDS011;38224;50.950;4.100;2022-08-04T02:00:01;15.15;;;4.80;;
52268;SDS011;38224;50.950;4.100;2022-08-04T02:02:26;11.52;;;4.38;;
52268;SDS011;38224;50.950;4.100;2022-08-04T02:04:52;19.17;;;4.68;;
52268;SDS011;38224;50.950;4.100;2022-08-04T02:14:43;14.50;;;5.78;;
52268;SDS011;38224;50.950;4.100;2022-08-04T02:17:11;7.93;;;4.78;;
52268;SDS011;38224;50.950;4.100;2022-08-04T02:20:21;12.00;;;5.53;;
52268;SDS011;38224;50.950;4.100;2022-08-04T02:22:26;13.48;;;5.40;;
52268;SDS011;38224;50.950;4.100;2022-08-04T02:25:02;16.42;;;5.55;;
52268;SDS011;38224;50.950;4.100;2022-08-04T02:30:09;16.90;;;5.57;;
52268;SDS011;38224;50.950;4.100;2022-08-04T02:32:35;15.82;;;5.20;;
52268;SDS011;38224;50.950;4.100;2022-08-04T02:37:32;13.25;;;4.78;;
52268;SDS011;38224;50.950;4.100;2022-08-04T02:40:01;11.70;;;5.35;;
52268;SDS011;38224;50.950;4.100;2022-08-04T02:42:27;12.80;;;5.40;;
52268;SDS011;38224;50.950;4.100;2022-08-04T02:44:53;13.18;;;5.00;;
52268;SDS011;38224;50.950;4.100;2022-08-04T02:47:20;15.55;;;5.18;;
52268;SDS011;38224;50.950;4.100;2022-08-04T02:49:46;10.68;;;4.82;;
52268;SDS011;38224;50.950;4.100;2022-08-04T02:52:14;14.45;;;5.03;;
52268;SDS011;38224;50.950;4.100;2022-08-04T02:54:41;11.80;;;4.75;;
52268;SDS011;38224;50.950;4.100;2022-08-04T02:57:07;11.95;;;4.22;;
52268;SDS011;38224;50.950;4.100;2022-08-04T02:59:38;11.38;;;5.03;;
52268;SDS011;38224;50.950;4.100;2022-08-04T03:02:08;9.68;;;4.32;;
52268;SDS011;38224;50.950;4.100;2022-08-04T03:04:53;13.50;;;4.13;;
52268;SDS011;38224;50.950;4.100;2022-08-04T03:10:10;12.93;;;4.80;;
52268;SDS011;38224;50.950;4.100;2022-08-04T03:25:37;9.98;;;4.00;;
52268;SDS011;38224;50.950;4.100;2022-08-04T03:33:32;14.65;;;5.25;;
52268;SDS011;38224;50.950;4.100;2022-08-04T03:38:54;15.88;;;5.10;;
52268;SDS011;38224;50.950;4.100;2022-08-04T03:54:21;17.40;;;5.45;;
52268;SDS011;38224;50.950;4.100;2022-08-04T03:57:14;13.18;;;5.20;;
52268;SDS011;38224;50.950;4.100;2022-08-04T04:08:24;13.82;;;5.00;;
52268;SDS011;38224;50.950;4.100;2022-08-04T04:10:50;12.88;;;5.32;;
52268;SDS011;38224;50.950;4.100;2022-08-04T04:20:52;12.13;;;4.65;;
52268;SDS011;38224;50.950;4.100;2022-08-04T04:23:23;14.18;;;5.72;;
52268;SDS011;38224;50.950;4.100;2022-08-04T04:31:26;19.23;;;5.40;;
52268;SDS011;38224;50.950;4.100;2022-08-04T04:34:01;11.98;;;5.43;;
52268;SDS011;38224;50.950;4.100;2022-08-04T04:44:08;11.25;;;5.00;;
52268;SDS011;38224;50.950;4.100;2022-08-04T04:49:30;10.45;;;4.22;;
52268;SDS011;38224;50.950;4.100;2022-08-04T04:51:59;14.50;;;4.85;;
52268;SDS011;38224;50.950;4.100;2022-08-04T04:54:38;15.45;;;5.28;;
52268;SDS011;38224;50.950;4.100;2022-08-04T04:57:12;16.13;;;5.35;;
52268;SDS011;38224;50.950;4.100;2022-08-04T04:59:41;9.75;;;4.53;;
52268;SDS011;38224;50.950;4.100;2022-08-04T05:04:49;15.00;;;5.07;;
52268;SDS011;38224;50.950;4.100;2022-08-04T05:07:29;18.40;;;5.22;;
52268;SDS011;38224;50.950;4.100;2022-08-04T05:10:02;11.65;;;5.40;;
52268;SDS011;38224;50.950;4.100;2022-08-04T05:15:10;12.80;;;5.45;;
52268;SDS011;38224;50.950;4.100;2022-08-04T05:17:37;15.32;;;5.18;;
52268;SDS011;38224;50.950;4.100;2022-08-04T05:20:19;11.30;;;4.60;;
52268;SDS011;38224;50.950;4.100;2022-08-04T05:25:18;14.85;;;5.05;;
52268;SDS011;38224;50.950;4.100;2022-08-04T05:30:22;14.98;;;5.32;;
52268;SDS011;38224;50.950;4.100;2022-08-04T05:32:56;12.57;;;5.35;;
52268;SDS011;38224;50.950;4.100;2022-08-04T05:35:42;12.13;;;5.45;;
52268;SDS011;38224;50.950;4.100;2022-08-04T05:38:09;16.50;;;5.50;;
52268;SDS011;38224;50.950;4.100;2022-08-04T05:40:36;14.40;;;5.45;;
52268;SDS011;38224;50.950;4.100;2022-08-04T05:43:02;13.90;;;5.68;;
52268;SDS011;38224;50.950;4.100;2022-08-04T05:45:28;15.50;;;5.72;;
52268;SDS011;38224;50.950;4.100;2022-08-04T05:47:54;12.10;;;4.82;;
52268;SDS011;38224;50.950;4.100;2022-08-04T05:50:19;11.10;;;5.33;;
52268;SDS011;38224;50.950;4.100;2022-08-04T05:52:45;12.70;;;5.07;;
52268;SDS011;38224;50.950;4.100;2022-08-04T05:55:10;18.95;;;5.47;;
52268;SDS011;38224;50.950;4.100;2022-08-04T05:57:39;13.23;;;4.20;;
52268;SDS011;38224;50.950;4.100;2022-08-04T06:00:05;16.92;;;4.93;;
52268;SDS011;38224;50.950;4.100;2022-08-04T06:02:31;12.63;;;4.97;;
52268;SDS011;38224;50.950;4.100;2022-08-04T06:04:57;16.05;;;4.60;;
52268;SDS011;38224;50.950;4.100;2022-08-04T06:07:23;11.73;;;4.90;;
52268;SDS011;38224;50.950;4.100;2022-08-04T06:09:50;14.48;;;4.75;;
52268;SDS011;38224;50.950;4.100;2022-08-04T06:14:59;11.35;;;5.00;;
52268;SDS011;38224;50.950;4.100;2022-08-04T06:17:32;15.77;;;5.20;;
52268;SDS011;38224;50.950;4.100;2022-08-04T06:19:58;15.68;;;5.93;;
52268;SDS011;38224;50.950;4.100;2022-08-04T06:22:25;12.27;;;4.45;;
52268;SDS011;38224;50.950;4.100;2022-08-04T06:24:51;10.65;;;4.63;;
52268;SDS011;38224;50.950;4.100;2022-08-04T06:27:17;15.48;;;4.88;;
52268;SDS011;38224;50.950;4.100;2022-08-04T06:29:43;18.77;;;5.65;;
52268;SDS011;38224;50.950;4.100;2022-08-04T06:32:09;12.45;;;5.15;;
52268;SDS011;38224;50.950;4.100;2022-08-04T06:34:48;16.05;;;6.05;;
52268;SDS011;38224;50.950;4.100;2022-08-04T06:37:14;19.25;;;6.95;;
52268;SDS011;38224;50.950;4.100;2022-08-04T06:39:39;19.70;;;8.45;;
52268;SDS011;38224;50.950;4.100;2022-08-04T06:42:05;22.73;;;9.03;;
52268;SDS011;38224;50.950;4.100;2022-08-04T06:44:30;21.67;;;9.43;;
52268;SDS011;38224;50.950;4.100;2022-08-04T06:46:56;21.65;;;11.43;;
52268;SDS011;38224;50.950;4.100;2022-08-04T06:49:22;22.92;;;10.63;;
52268;SDS011;38224;50.950;4.100;2022-08-04T06:51:48;16.48;;;9.55;;
52268;SDS011;38224;50.950;4.100;2022-08-04T06:54:14;17.73;;;9.05;;
52268;SDS011;38224;50.950;4.100;2022-08-04T06:56:40;17.75;;;10.75;;
52268;SDS011;38224;50.950;4.100;2022-08-04T06:59:07;22.63;;;10.75;;
52268;SDS011;38224;50.950;4.100;2022-08-04T07:01:32;25.52;;;11.65;;
52268;SDS011;38224;50.950;4.100;2022-08-04T07:03:59;25.08;;;13.07;;
52268;SDS011;38224;50.950;4.100;2022-08-04T07:06:25;37.40;;;18.33;;
52268;SDS011;38224;50.950;4.100;2022-08-04T07:08:50;42.63;;;21.63;;
52268;SDS011;38224;50.950;4.100;2022-08-04T07:11:16;47.83;;;24.58;;
52268;SDS011;38224;50.950;4.100;2022-08-04T07:13:43;52.22;;;26.70;;
52268;SDS011;38224;50.950;4.100;2022-08-04T07:16:09;57.97;;;27.88;;
52268;SDS011;38224;50.950;4.100;2022-08-04T07:18:37;52.30;;;27.90;;
52268;SDS011;38224;50.950;4.100;2022-08-04T07:21:02;64.03;;;29.48;;
52268;SDS011;38224;50.950;4.100;2022-08-04T07:23:27;52.07;;;28.00;;
52268;SDS011;38224;50.950;4.100;2022-08-04T07:25:54;69.73;;;33.53;;
52268;SDS011;38224;50.950;4.100;2022-08-04T07:28:22;68.13;;;34.90;;
52268;SDS011;38224;50.950;4.100;2022-08-04T07:30:48;68.88;;;35.22;;
52268;SDS011;38224;50.950;4.100;2022-08-04T07:33:14;73.13;;;37.60;;
52268;SDS011;38224;50.950;4.100;2022-08-04T07:35:40;66.60;;;35.67;;
52268;SDS011;38224;50.950;4.100;2022-08-04T07:38:05;63.05;;;34.08;;
52268;SDS011;38224;50.950;4.100;2022-08-04T07:40:30;62.83;;;34.50;;
52268;SDS011;38224;50.950;4.100;2022-08-04T07:42:56;61.95;;;33.35;;
52268;SDS011;38224;50.950;4.100;2022-08-04T07:45:22;68.07;;;34.47;;
52268;SDS011;38224;50.950;4.100;2022-08-04T07:47:48;58.47;;;31.88;;
52268;SDS011;38224;50.950;4.100;2022-08-04T07:50:13;65.67;;;33.20;;
52268;SDS011;38224;50.950;4.100;2022-08-04T07:52:39;53.92;;;32.35;;
52268;SDS011;38224;50.950;4.100;2022-08-04T07:55:04;53.75;;;31.70;;
52268;SDS011;38224;50.950;4.100;2022-08-04T07:57:30;56.00;;;31.63;;
52268;SDS011;38224;50.950;4.100;2022-08-04T07:59:55;49.87;;;31.50;;
52268;SDS011;38224;50.950;4.100;2022-08-04T08:02:21;57.30;;;32.25;;
52268;SDS011;38224;50.950;4.100;2022-08-04T08:04:47;48.40;;;32.20;;
52268;SDS011;38224;50.950;4.100;2022-08-04T08:07:12;55.35;;;33.88;;
52268;SDS011;38224;50.950;4.100;2022-08-04T08:09:37;45.60;;;31.70;;
52268;SDS011;38224;50.950;4.100;2022-08-04T08:12:03;52.10;;;31.95;;
52268;SDS011;38224;50.950;4.100;2022-08-04T08:14:28;56.15;;;31.95;;
52268;SDS011;38224;50.950;4.100;2022-08-04T08:16:54;45.70;;;31.08;;
52268;SDS011;38224;50.950;4.100;2022-08-04T08:19:19;49.92;;;30.73;;
52268;SDS011;38224;50.950;4.100;2022-08-04T08:21:45;51.23;;;31.17;;
52268;SDS011;38224;50.950;4.100;2022-08-04T08:24:11;49.63;;;30.80;;
52268;SDS011;38224;50.950;4.100;2022-08-04T08:26:37;49.30;;;31.13;;
52268;SDS011;38224;50.950;4.100;2022-08-04T08:29:02;43.40;;;29.27;;
52268;SDS011;38224;50.950;4.100;2022-08-04T08:31:28;45.80;;;29.38;;
52268;SDS011;38224;50.950;4.100;2022-08-04T08:33:53;47.05;;;30.67;;
52268;SDS011;38224;50.950;4.100;2022-08-04T08:36:22;42.45;;;30.02;;
52268;SDS011;38224;50.950;4.100;2022-08-04T08:43:55;46.97;;;31.10;;
52268;SDS011;38224;50.950;4.100;2022-08-04T08:49:24;39.50;;;27.65;;
52268;SDS011;38224;50.950;4.100;2022-08-04T08:51:58;42.33;;;26.65;;
52268;SDS011;38224;50.950;4.100;2022-08-04T08:57:10;41.20;;;24.52;;
52268;SDS011;38224;50.950;4.100;2022-08-04T08:59:47;39.83;;;24.45;;
52268;SDS011;38224;50.950;4.100;2022-08-04T09:17:17;35.57;;;24.23;;
52268;SDS011;38224;50.950;4.100;2022-08-04T09:19:47;45.35;;;24.42;;
52268;SDS011;38224;50.950;4.100;2022-08-04T09:22:15;35.17;;;23.50;;
52268;SDS011;38224;50.950;4.100;2022-08-04T09:24:46;35.38;;;22.15;;
52268;SDS011;38224;50.950;4.100;2022-08-04T09:27:14;33.85;;;21.42;;
52268;SDS011;38224;50.950;4.100;2022-08-04T09:29:44;34.95;;;22.20;;
52268;SDS011;38224;50.950;4.100;2022-08-04T09:37:11;31.27;;;21.85;;
52268;SDS011;38224;50.950;4.100;2022-08-04T09:39:41;33.97;;;20.95;;
52268;SDS011;38224;50.950;4.100;2022-08-04T09:49:54;35.95;;;21.13;;
52268;SDS011;38224;50.950;4.100;2022-08-04T09:52:34;28.70;;;19.90;;
52268;SDS011;38224;50.950;4.100;2022-08-04T09:55:06;32.40;;;18.85;;
52268;SDS011;38224;50.950;4.100;2022-08-04T10:00:01;28.90;;;19.23;;
52268;SDS011;38224;50.950;4.100;2022-08-04T10:02:31;28.67;;;17.52;;
52268;SDS011;38224;50.950;4.100;2022-08-04T10:04:58;22.60;;;15.65;;
52268;SDS011;38224;50.950;4.100;2022-08-04T10:07:33;21.92;;;14.85;;
52268;SDS011;38224;50.950;4.100;2022-08-04T10:10:11;24.08;;;14.60;;
52268;SDS011;38224;50.950;4.100;2022-08-04T10:15:18;15.63;;;11.45;;
52268;SDS011;38224;50.950;4.100;2022-08-04T10:17:58;14.60;;;10.65;;
52268;SDS011;38224;50.950;4.100;2022-08-04T10:28:08;12.35;;;9.45;;
52268;SDS011;38224;50.950;4.100;2022-08-04T10:30:35;12.65;;;8.57;;
52268;SDS011;38224;50.950;4.100;2022-08-04T10:33:11;15.18;;;9.07;;
52268;SDS011;38224;50.950;4.100;2022-08-04T10:36:23;13.73;;;8.73;;
52268;SDS011;38224;50.950;4.100;2022-08-04T10:38:29;12.25;;;8.50;;
52268;SDS011;38224;50.950;4.100;2022-08-04T10:40:57;12.02;;;8.40;;
52268;SDS011;38224;50.950;4.100;2022-08-04T10:45:57;12.37;;;8.27;;
52268;SDS011;38224;50.950;4.100;2022-08-04T10:48:29;13.48;;;7.22;;
52268;SDS011;38224;50.950;4.100;2022-08-04T10:53:41;11.40;;;8.20;;
52268;SDS011;38224;50.950;4.100;2022-08-04T10:56:12;14.18;;;8.50;;
52268;SDS011;38224;50.950;4.100;2022-08-04T10:58:41;16.52;;;9.23;;
52268;SDS011;38224;50.950;4.100;2022-08-04T11:01:10;13.70;;;9.52;;
52268;SDS011;38224;50.950;4.100;2022-08-04T11:03:50;10.95;;;8.27;;
52268;SDS011;38224;50.950;4.100;2022-08-04T11:06:19;14.13;;;8.43;;
52268;SDS011;38224;50.950;4.100;2022-08-04T11:08:46;14.77;;;8.90;;
52268;SDS011;38224;50.950;4.100;2022-08-04T11:13:46;18.52;;;7.85;;
52268;SDS011;38224;50.950;4.100;2022-08-04T11:16:59;11.63;;;7.80;;
52268;SDS011;38224;50.950;4.100;2022-08-04T11:21:27;7.97;;;5.90;;
52268;SDS011;38224;50.950;4.100;2022-08-04T11:24:18;9.65;;;6.03;;
52268;SDS011;38224;50.950;4.100;2022-08-04T11:26:47;7.68;;;6.60;;
52268;SDS011;38224;50.950;4.100;2022-08-04T11:31:42;11.38;;;6.85;;
52268;SDS011;38224;50.950;4.100;2022-08-04T11:34:21;9.25;;;6.65;;
52268;SDS011;38224;50.950;4.100;2022-08-04T11:42:06;10.32;;;7.55;;
52268;SDS011;38224;50.950;4.100;2022-08-04T11:44:42;9.18;;;7.05;;
52268;SDS011;38224;50.950;4.100;2022-08-04T11:47:10;9.85;;;6.40;;
52268;SDS011;38224;50.950;4.100;2022-08-04T11:49:39;11.15;;;6.90;;
52268;SDS011;38224;50.950;4.100;2022-08-04T11:52:05;14.77;;;7.00;;
52268;SDS011;38224;50.950;4.100;2022-08-04T11:54:32;10.23;;;6.38;;
52268;SDS011;38224;50.950;4.100;2022-08-04T11:56:58;10.85;;;6.53;;
52268;SDS011;38224;50.950;4.100;2022-08-04T11:59:27;14.38;;;6.78;;
52268;SDS011;38224;50.950;4.100;2022-08-04T12:02:36;9.52;;;6.07;;
52268;SDS011;38224;50.950;4.100;2022-08-04T12:09:44;11.90;;;6.55;;
52268;SDS011;38224;50.950;4.100;2022-08-04T12:12:23;10.00;;;6.00;;
52268;SDS011;38224;50.950;4.100;2022-08-04T12:17:42;10.30;;;5.88;;
52268;SDS011;38224;50.950;4.100;2022-08-04T12:20:09;12.27;;;5.78;;
52268;SDS011;38224;50.950;4.100;2022-08-04T12:22:42;14.30;;;5.35;;
52268;SDS011;38224;50.950;4.100;2022-08-04T12:25:11;15.45;;;5.78;;
52268;SDS011;38224;50.950;4.100;2022-08-04T12:30:07;11.73;;;6.20;;
52268;SDS011;38224;50.950;4.100;2022-08-04T12:32:42;13.75;;;6.35;;
52268;SDS011;38224;50.950;4.100;2022-08-04T12:37:40;11.33;;;5.70;;
52268;SDS011;38224;50.950;4.100;2022-08-04T12:40:12;9.30;;;5.28;;
52268;SDS011;38224;50.950;4.100;2022-08-04T12:42:42;8.98;;;4.82;;
52268;SDS011;38224;50.950;4.100;2022-08-04T12:45:08;12.48;;;5.60;;
52268;SDS011;38224;50.950;4.100;2022-08-04T12:47:34;9.95;;;5.30;;
52268;SDS011;38224;50.950;4.100;2022-08-04T12:50:00;12.30;;;6.03;;
52268;SDS011;38224;50.950;4.100;2022-08-04T12:52:27;9.98;;;5.65;;
52268;SDS011;38224;50.950;4.100;2022-08-04T12:54:54;12.23;;;6.00;;
52268;SDS011;38224;50.950;4.100;2022-08-04T12:57:23;9.43;;;5.35;;
52268;SDS011;38224;50.950;4.100;2022-08-04T12:59:49;17.35;;;7.32;;
52268;SDS011;38224;50.950;4.100;2022-08-04T13:02:22;10.03;;;6.70;;
52268;SDS011;38224;50.950;4.100;2022-08-04T13:04:48;11.20;;;7.15;;
52268;SDS011;38224;50.950;4.100;2022-08-04T13:07:18;11.45;;;6.85;;
52268;SDS011;38224;50.950;4.100;2022-08-04T13:09:44;14.60;;;7.88;;
52268;SDS011;38224;50.950;4.100;2022-08-04T13:12:11;13.50;;;7.05;;
52268;SDS011;38224;50.950;4.100;2022-08-04T13:14:38;10.65;;;6.45;;
52268;SDS011;38224;50.950;4.100;2022-08-04T13:17:07;13.32;;;5.90;;
52268;SDS011;38224;50.950;4.100;2022-08-04T13:19:32;11.48;;;5.90;;
52268;SDS011;38224;50.950;4.100;2022-08-04T13:21:58;11.38;;;5.35;;
52268;SDS011;38224;50.950;4.100;2022-08-04T13:24:27;7.97;;;4.30;;
52268;SDS011;38224;50.950;4.100;2022-08-04T13:26:57;12.55;;;4.80;;
52268;SDS011;38224;50.950;4.100;2022-08-04T13:29:26;9.80;;;5.32;;
52268;SDS011;38224;50.950;4.100;2022-08-04T13:31:53;7.35;;;4.25;;
52268;SDS011;38224;50.950;4.100;2022-08-04T13:34:19;10.50;;;4.25;;
52268;SDS011;38224;50.950;4.100;2022-08-04T13:36:45;10.93;;;4.15;;
52268;SDS011;38224;50.950;4.100;2022-08-04T13:39:17;5.50;;;3.83;;
52268;SDS011;38224;50.950;4.100;2022-08-04T13:41:50;12.10;;;4.38;;
52268;SDS011;38224;50.950;4.100;2022-08-04T13:44:21;12.27;;;3.83;;
52268;SDS011;38224;50.950;4.100;2022-08-04T13:47:21;7.00;;;3.30;;
52268;SDS011;38224;50.950;4.100;2022-08-04T13:49:38;7.40;;;3.40;;
52268;SDS011;38224;50.950;4.100;2022-08-04T13:52:04;7.63;;;3.05;;
52268;SDS011;38224;50.950;4.100;2022-08-04T13:54:36;6.53;;;2.72;;
52268;SDS011;38224;50.950;4.100;2022-08-04T13:57:05;4.22;;;2.53;;
52268;SDS011;38224;50.950;4.100;2022-08-04T13:59:33;10.82;;;2.92;;
52268;SDS011;38224;50.950;4.100;2022-08-04T14:02:08;8.90;;;3.42;;
52268;SDS011;38224;50.950;4.100;2022-08-04T14:04:39;8.38;;;3.10;;
52268;SDS011;38224;50.950;4.100;2022-08-04T14:07:12;10.75;;;4.00;;
52268;SDS011;38224;50.950;4.100;2022-08-04T14:09:39;9.25;;;4.60;;
52268;SDS011;38224;50.950;4.100;2022-08-04T14:14:31;7.77;;;3.10;;
52268;SDS011;38224;50.950;4.100;2022-08-04T14:16:58;6.60;;;3.78;;
52268;SDS011;38224;50.950;4.100;2022-08-04T14:19:25;9.75;;;3.13;;
52268;SDS011;38224;50.950;4.100;2022-08-04T14:21:50;10.43;;;2.85;;
52268;SDS011;38224;50.950;4.100;2022-08-04T14:24:26;7.53;;;2.83;;
52268;SDS011;38224;50.950;4.100;2022-08-04T14:26:52;13.25;;;3.25;;
52268;SDS011;38224;50.950;4.100;2022-08-04T14:29:22;8.07;;;3.20;;
52268;SDS011;38224;50.950;4.100;2022-08-04T14:31:48;5.18;;;2.50;;
52268;SDS011;38224;50.950;4.100;2022-08-04T14:34:26;6.15;;;2.50;;
52268;SDS011;38224;50.950;4.100;2022-08-04T14:36:51;4.63;;;2.13;;
52268;SDS011;38224;50.950;4.100;2022-08-04T14:39:17;6.75;;;2.55;;
52268;SDS011;38224;50.950;4.100;2022-08-04T14:41:46;7.95;;;3.03;;
52268;SDS011;38224;50.950;4.100;2022-08-04T14:44:12;6.00;;;2.42;;
52268;SDS011;38224;50.950;4.100;2022-08-04T14:46:50;7.97;;;2.10;;
52268;SDS011;38224;50.950;4.100;2022-08-04T14:49:16;8.07;;;2.78;;
52268;SDS011;38224;50.950;4.100;2022-08-04T14:51:45;6.63;;;3.05;;
52268;SDS011;38224;50.950;4.100;2022-08-04T14:54:15;5.45;;;2.22;;
52268;SDS011;38224;50.950;4.100;2022-08-04T14:56:41;5.97;;;2.63;;
52268;SDS011;38224;50.950;4.100;2022-08-04T14:59:15;13.73;;;2.80;;
52268;SDS011;38224;50.950;4.100;2022-08-04T15:01:40;7.57;;;3.57;;
52268;SDS011;38224;50.950;4.100;2022-08-04T15:04:06;13.75;;;3.42;;
52268;SDS011;38224;50.950;4.100;2022-08-04T15:06:32;5.38;;;2.50;;
52268;SDS011;38224;50.950;4.100;2022-08-04T15:08:58;8.35;;;2.80;;
52268;SDS011;38224;50.950;4.100;2022-08-04T15:11:25;6.88;;;2.63;;
52268;SDS011;38224;50.950;4.100;2022-08-04T15:13:51;7.85;;;2.63;;
52268;SDS011;38224;50.950;4.100;2022-08-04T15:16:17;10.02;;;3.03;;
52268;SDS011;38224;50.950;4.100;2022-08-04T15:18:42;7.90;;;2.95;;
52268;SDS011;38224;50.950;4.100;2022-08-04T15:21:08;5.55;;;2.67;;
52268;SDS011;38224;50.950;4.100;2022-08-04T15:23:34;8.43;;;2.92;;
52268;SDS011;38224;50.950;4.100;2022-08-04T15:26:00;8.60;;;3.05;;
52268;SDS011;38224;50.950;4.100;2022-08-04T15:28:26;9.40;;;3.17;;
52268;SDS011;38224;50.950;4.100;2022-08-04T15:30:56;7.15;;;3.03;;
52268;SDS011;38224;50.950;4.100;2022-08-04T15:33:23;11.45;;;3.22;;
52268;SDS011;38224;50.950;4.100;2022-08-04T15:35:51;9.13;;;2.60;;
52268;SDS011;38224;50.950;4.100;2022-08-04T15:38:27;4.97;;;3.22;;
52268;SDS011;38224;50.950;4.100;2022-08-04T15:41:07;9.52;;;2.70;;
52268;SDS011;38224;50.950;4.100;2022-08-04T15:46:07;6.13;;;2.88;;
52268;SDS011;38224;50.950;4.100;2022-08-04T15:48:33;9.23;;;2.67;;
52268;SDS011;38224;50.950;4.100;2022-08-04T15:50:59;7.00;;;2.95;;
52268;SDS011;38224;50.950;4.100;2022-08-04T15:56:09;9.20;;;2.80;;
52268;SDS011;38224;50.950;4.100;2022-08-04T15:58:49;12.45;;;3.30;;
52268;SDS011;38224;50.950;4.100;2022-08-04T16:01:15;8.82;;;2.88;;
52268;SDS011;38224;50.950;4.100;2022-08-04T16:03:41;7.88;;;3.38;;
52268;SDS011;38224;50.950;4.100;2022-08-04T16:21:33;8.93;;;2.63;;
52268;SDS011;38224;50.950;4.100;2022-08-04T16:24:08;11.73;;;2.90;;
52268;SDS011;38224;50.950;4.100;2022-08-04T16:34:33;6.75;;;2.72;;
52268;SDS011;38224;50.950;4.100;2022-08-04T16:37:00;5.22;;;2.88;;
52268;SDS011;38224;50.950;4.100;2022-08-04T16:39:25;3.88;;;2.33;;
52268;SDS011;38224;50.950;4.100;2022-08-04T16:41:51;5.23;;;2.40;;
52268;SDS011;38224;50.950;4.100;2022-08-04T16:46:55;6.35;;;2.13;;
52268;SDS011;38224;50.950;4.100;2022-08-04T16:49:20;7.88;;;2.08;;
52268;SDS011;38224;50.950;4.100;2022-08-04T16:51:46;2.67;;;1.85;;
52268;SDS011;38224;50.950;4.100;2022-08-04T16:54:13;6.05;;;1.92;;
52268;SDS011;38224;50.950;4.100;2022-08-04T16:56:38;5.35;;;1.85;;
52268;SDS011;38224;50.950;4.100;2022-08-04T16:59:07;9.52;;;2.13;;
52268;SDS011;38224;50.950;4.100;2022-08-04T17:01:33;11.90;;;3.10;;
52268;SDS011;38224;50.950;4.100;2022-08-04T17:03:59;7.35;;;2.33;;
52268;SDS011;38224;50.950;4.100;2022-08-04T17:06:38;8.70;;;2.75;;
52268;SDS011;38224;50.950;4.100;2022-08-04T17:09:25;5.43;;;2.55;;
52268;SDS011;38224;50.950;4.100;2022-08-04T17:11:49;6.43;;;2.40;;
52268;SDS011;38224;50.950;4.100;2022-08-04T17:14:26;11.02;;;2.58;;
52268;SDS011;38224;50.950;4.100;2022-08-04T17:16:53;8.98;;;2.60;;
52268;SDS011;38224;50.950;4.100;2022-08-04T17:19:18;9.32;;;2.63;;
52268;SDS011;38224;50.950;4.100;2022-08-04T17:21:44;5.17;;;2.47;;
52268;SDS011;38224;50.950;4.100;2022-08-04T17:24:09;5.50;;;2.28;;
52268;SDS011;38224;50.950;4.100;2022-08-04T17:26:36;10.15;;;2.78;;
52268;SDS011;38224;50.950;4.100;2022-08-04T17:29:02;6.60;;;2.13;;
52268;SDS011;38224;50.950;4.100;2022-08-04T17:31:28;6.15;;;3.03;;
52268;SDS011;38224;50.950;4.100;2022-08-04T17:33:54;8.90;;;2.30;;
52268;SDS011;38224;50.950;4.100;2022-08-04T17:36:24;6.25;;;2.40;;
52268;SDS011;38224;50.950;4.100;2022-08-04T17:38:51;4.90;;;2.20;;
52268;SDS011;38224;50.950;4.100;2022-08-04T17:41:18;5.68;;;2.20;;
52268;SDS011;38224;50.950;4.100;2022-08-04T17:43:58;7.47;;;2.45;;
52268;SDS011;38224;50.950;4.100;2022-08-04T17:48:57;8.15;;;2.33;;
52268;SDS011;38224;50.950;4.100;2022-08-04T17:51:26;3.80;;;1.93;;
52268;SDS011;38224;50.950;4.100;2022-08-04T17:53:56;5.82;;;2.35;;
52268;SDS011;38224;50.950;4.100;2022-08-04T17:56:31;6.82;;;2.67;;
52268;SDS011;38224;50.950;4.100;2022-08-04T17:59:16;3.55;;;2.17;;
52268;SDS011;38224;50.950;4.100;2022-08-04T18:06:50;6.47;;;2.03;;
52268;SDS011;38224;50.950;4.100;2022-08-04T18:09:36;4.57;;;2.22;;
52268;SDS011;38224;50.950;4.100;2022-08-04T18:12:03;8.25;;;2.70;;
52268;SDS011;38224;50.950;4.100;2022-08-04T18:14:39;6.40;;;2.58;;
52268;SDS011;38224;50.950;4.100;2022-08-04T18:17:05;5.75;;;2.28;;
52268;SDS011;38224;50.950;4.100;2022-08-04T18:19:30;6.32;;;2.67;;
52268;SDS011;38224;50.950;4.100;2022-08-04T18:21:55;7.10;;;2.40;;
52268;SDS011;38224;50.950;4.100;2022-08-04T18:24:21;5.43;;;1.98;;
52268;SDS011;38224;50.950;4.100;2022-08-04T18:26:46;9.30;;;2.43;;
52268;SDS011;38224;50.950;4.100;2022-08-04T18:29:12;10.95;;;2.72;;
52268;SDS011;38224;50.950;4.100;2022-08-04T18:31:37;6.38;;;2.58;;
52268;SDS011;38224;50.950;4.100;2022-08-04T18:34:04;11.63;;;2.20;;
52268;SDS011;38224;50.950;4.100;2022-08-04T18:36:29;7.88;;;2.22;;
52268;SDS011;38224;50.950;4.100;2022-08-04T18:38:55;4.38;;;2.13;;
52268;SDS011;38224;50.950;4.100;2022-08-04T18:41:20;7.97;;;2.17;;
52268;SDS011;38224;50.950;4.100;2022-08-04T18:43:45;7.67;;;2.30;;
52268;SDS011;38224;50.950;4.100;2022-08-04T18:46:10;7.05;;;2.55;;
52268;SDS011;38224;50.950;4.100;2022-08-04T18:48:36;7.27;;;2.40;;
52268;SDS011;38224;50.950;4.100;2022-08-04T18:51:01;7.10;;;2.47;;
52268;SDS011;38224;50.950;4.100;2022-08-04T18:53:26;6.85;;;2.33;;
52268;SDS011;38224;50.950;4.100;2022-08-04T18:55:52;7.28;;;2.10;;
52268;SDS011;38224;50.950;4.100;2022-08-04T18:58:17;6.33;;;2.77;;
52268;SDS011;38224;50.950;4.100;2022-08-04T19:00:45;4.95;;;2.08;;
52268;SDS011;38224;50.950;4.100;2022-08-04T19:03:13;4.35;;;2.38;;
52268;SDS011;38224;50.950;4.100;2022-08-04T19:05:39;11.93;;;2.70;;